sensor_id;sensor_type;location;lat;lon;timestamp;P1;durP1;ratioP1;P2;durP2;ratioP2
11064;SDS011;5585;52.530;7.320;2023-08-31T00:00:41;3.30;;;2.00;;
11064;SDS011;5585;52.530;7.320;2023-08-31T00:03:07;3.67;;;1.83;;
11064;SDS011;5585;52.530;7.320;2023-08-31T00:05:36;3.57;;;2.33;;
11064;SDS011;5585;52.530;7.320;2023-08-31T00:08:03;3.90;;;2.15;;
11064;SDS011;5585;52.530;7.320;2023-08-31T00:10:29;3.57;;;1.97;;
11064;SDS011;5585;52.530;7.320;2023-08-31T00:12:56;3.57;;;2.23;;
11064;SDS011;5585;52.530;7.320;2023-08-31T00:15:22;4.00;;;2.10;;
11064;SDS011;5585;52.530;7.320;2023-08-31T00:17:51;3.38;;;2.20;;
11064;SDS011;5585;52.530;7.320;2023-08-31T00:20:17;3.50;;;2.30;;
11064;SDS011;5585;52.530;7.320;2023-08-31T00:22:44;4.83;;;2.67;;
11064;SDS011;5585;52.530;7.320;2023-08-31T00:25:10;2.88;;;1.98;;
11064;SDS011;5585;52.530;7.320;2023-08-31T00:27:37;4.25;;;2.17;;
11064;SDS011;5585;52.530;7.320;2023-08-31T00:30:04;2.90;;;2.20;;
11064;SDS011;5585;52.530;7.320;2023-08-31T00:32:32;3.38;;;2.30;;
11064;SDS011;5585;52.530;7.320;2023-08-31T00:35:01;3.75;;;2.08;;
11064;SDS011;5585;52.530;7.320;2023-08-31T00:37:28;3.17;;;1.85;;
11064;SDS011;5585;52.530;7.320;2023-08-31T00:39:55;3.88;;;2.20;;
11064;SDS011;5585;52.530;7.320;2023-08-31T00:42:21;3.13;;;2.30;;
11064;SDS011;5585;52.530;7.320;2023-08-31T00:44:50;2.90;;;2.15;;
11064;SDS011;5585;52.530;7.320;2023-08-31T00:47:16;3.53;;;2.13;;
11064;SDS011;5585;52.530;7.320;2023-08-31T00:49:43;4.67;;;1.90;;
11064;SDS011;5585;52.530;7.320;2023-08-31T00:52:11;2.72;;;2.10;;
11064;SDS011;5585;52.530;7.320;2023-08-31T00:54:37;5.70;;;2.25;;
11064;SDS011;5585;52.530;7.320;2023-08-31T00:57:04;4.27;;;2.23;;
11064;SDS011;5585;52.530;7.320;2023-08-31T00:59:31;4.30;;;2.33;;
11064;SDS011;5585;52.530;7.320;2023-08-31T01:01:59;4.07;;;2.13;;
11064;SDS011;5585;52.530;7.320;2023-08-31T01:04:30;4.27;;;2.40;;
11064;SDS011;5585;52.530;7.320;2023-08-31T01:07:00;2.57;;;1.97;;
11064;SDS011;5585;52.530;7.320;2023-08-31T01:09:39;5.00;;;2.27;;
11064;SDS011;5585;52.530;7.320;2023-08-31T01:12:08;2.80;;;2.00;;
11064;SDS011;5585;52.530;7.320;2023-08-31T01:14:38;4.22;;;2.22;;
11064;SDS011;5585;52.530;7.320;2023-08-31T01:17:05;4.63;;;2.20;;
11064;SDS011;5585;52.530;7.320;2023-08-31T01:19:44;3.87;;;2.23;;
11064;SDS011;5585;52.530;7.320;2023-08-31T01:22:13;3.07;;;1.80;;
11064;SDS011;5585;52.530;7.320;2023-08-31T01:24:43;3.77;;;2.30;;
11064;SDS011;5585;52.530;7.320;2023-08-31T01:27:10;2.77;;;1.90;;
11064;SDS011;5585;52.530;7.320;2023-08-31T01:29:36;3.73;;;2.20;;
11064;SDS011;5585;52.530;7.320;2023-08-31T01:32:05;4.67;;;2.47;;
11064;SDS011;5585;52.530;7.320;2023-08-31T01:34:31;3.67;;;2.40;;
11064;SDS011;5585;52.530;7.320;2023-08-31T01:36:58;4.53;;;2.47;;
11064;SDS011;5585;52.530;7.320;2023-08-31T01:39:27;2.10;;;1.80;;
11064;SDS011;5585;52.530;7.320;2023-08-31T01:41:57;4.57;;;1.90;;
11064;SDS011;5585;52.530;7.320;2023-08-31T01:44:24;3.17;;;2.22;;
11064;SDS011;5585;52.530;7.320;2023-08-31T01:46:52;3.57;;;1.90;;
11064;SDS011;5585;52.530;7.320;2023-08-31T01:49:19;3.45;;;2.00;;
11064;SDS011;5585;52.530;7.320;2023-08-31T01:51:45;4.20;;;2.37;;
11064;SDS011;5585;52.530;7.320;2023-08-31T01:54:12;2.27;;;1.87;;
11064;SDS011;5585;52.530;7.320;2023-08-31T01:56:38;4.03;;;2.08;;
11064;SDS011;5585;52.530;7.320;2023-08-31T01:59:06;2.37;;;1.80;;
11064;SDS011;5585;52.530;7.320;2023-08-31T02:01:33;3.60;;;2.20;;
11064;SDS011;5585;52.530;7.320;2023-08-31T02:03:59;3.60;;;2.20;;
11064;SDS011;5585;52.530;7.320;2023-08-31T02:06:26;2.67;;;2.00;;
11064;SDS011;5585;52.530;7.320;2023-08-31T02:08:52;4.67;;;2.33;;
11064;SDS011;5585;52.530;7.320;2023-08-31T02:11:19;3.90;;;2.33;;
11064;SDS011;5585;52.530;7.320;2023-08-31T02:13:45;6.27;;;2.47;;
11064;SDS011;5585;52.530;7.320;2023-08-31T02:16:13;2.00;;;1.80;;
11064;SDS011;5585;52.530;7.320;2023-08-31T02:18:40;4.47;;;2.00;;
11064;SDS011;5585;52.530;7.320;2023-08-31T02:21:06;2.10;;;1.88;;
11064;SDS011;5585;52.530;7.320;2023-08-31T02:23:33;3.40;;;1.90;;
11064;SDS011;5585;52.530;7.320;2023-08-31T02:25:59;3.00;;;1.90;;
11064;SDS011;5585;52.530;7.320;2023-08-31T02:28:26;2.88;;;2.10;;
11064;SDS011;5585;52.530;7.320;2023-08-31T02:30:57;3.07;;;1.90;;
11064;SDS011;5585;52.530;7.320;2023-08-31T02:33:25;3.27;;;1.90;;
11064;SDS011;5585;52.530;7.320;2023-08-31T02:35:53;2.47;;;2.23;;
11064;SDS011;5585;52.530;7.320;2023-08-31T02:38:19;3.57;;;2.30;;
11064;SDS011;5585;52.530;7.320;2023-08-31T02:40:46;3.27;;;2.00;;
11064;SDS011;5585;52.530;7.320;2023-08-31T02:43:12;4.70;;;2.47;;
11064;SDS011;5585;52.530;7.320;2023-08-31T02:45:39;2.27;;;2.00;;
11064;SDS011;5585;52.530;7.320;2023-08-31T02:48:06;2.87;;;2.50;;
11064;SDS011;5585;52.530;7.320;2023-08-31T02:50:35;2.43;;;2.23;;
11064;SDS011;5585;52.530;7.320;2023-08-31T02:53:01;2.47;;;2.07;;
11064;SDS011;5585;52.530;7.320;2023-08-31T02:55:28;2.73;;;2.47;;
11064;SDS011;5585;52.530;7.320;2023-08-31T02:57:57;4.07;;;2.47;;
11064;SDS011;5585;52.530;7.320;2023-08-31T03:00:23;3.67;;;2.67;;
11064;SDS011;5585;52.530;7.320;2023-08-31T03:02:50;2.90;;;2.50;;
11064;SDS011;5585;52.530;7.320;2023-08-31T03:05:17;3.67;;;2.78;;
11064;SDS011;5585;52.530;7.320;2023-08-31T03:07:45;4.73;;;2.60;;
11064;SDS011;5585;52.530;7.320;2023-08-31T03:10:11;3.40;;;2.60;;
11064;SDS011;5585;52.530;7.320;2023-08-31T03:12:38;3.97;;;2.90;;
11064;SDS011;5585;52.530;7.320;2023-08-31T03:15:05;3.73;;;2.50;;
11064;SDS011;5585;52.530;7.320;2023-08-31T03:17:32;2.53;;;2.33;;
11064;SDS011;5585;52.530;7.320;2023-08-31T03:19:58;3.40;;;2.77;;
11064;SDS011;5585;52.530;7.320;2023-08-31T03:22:25;3.47;;;2.90;;
11064;SDS011;5585;52.530;7.320;2023-08-31T03:24:53;3.05;;;2.75;;
11064;SDS011;5585;52.530;7.320;2023-08-31T03:27:19;2.97;;;2.67;;
11064;SDS011;5585;52.530;7.320;2023-08-31T03:29:46;3.30;;;3.00;;
11064;SDS011;5585;52.530;7.320;2023-08-31T03:32:12;3.47;;;3.17;;
11064;SDS011;5585;52.530;7.320;2023-08-31T03:34:39;4.70;;;3.37;;
11064;SDS011;5585;52.530;7.320;2023-08-31T03:37:06;3.57;;;3.27;;
11064;SDS011;5585;52.530;7.320;2023-08-31T03:39:32;4.37;;;3.77;;
11064;SDS011;5585;52.530;7.320;2023-08-31T03:42:00;3.90;;;3.10;;
11064;SDS011;5585;52.530;7.320;2023-08-31T03:44:27;4.72;;;3.50;;
11064;SDS011;5585;52.530;7.320;2023-08-31T03:46:54;4.53;;;4.13;;
11064;SDS011;5585;52.530;7.320;2023-08-31T03:49:20;3.80;;;3.27;;
11064;SDS011;5585;52.530;7.320;2023-08-31T03:51:47;4.10;;;3.50;;
11064;SDS011;5585;52.530;7.320;2023-08-31T03:54:13;3.80;;;3.50;;
11064;SDS011;5585;52.530;7.320;2023-08-31T03:56:40;4.27;;;3.63;;
11064;SDS011;5585;52.530;7.320;2023-08-31T03:59:08;3.90;;;3.60;;
11064;SDS011;5585;52.530;7.320;2023-08-31T04:01:34;5.13;;;3.90;;
11064;SDS011;5585;52.530;7.320;2023-08-31T04:04:01;3.70;;;3.30;;
11064;SDS011;5585;52.530;7.320;2023-08-31T04:06:29;3.90;;;3.60;;
11064;SDS011;5585;52.530;7.320;2023-08-31T04:08:55;5.87;;;4.33;;
11064;SDS011;5585;52.530;7.320;2023-08-31T04:11:22;4.50;;;4.13;;
11064;SDS011;5585;52.530;7.320;2023-08-31T04:13:49;5.00;;;4.20;;
11064;SDS011;5585;52.530;7.320;2023-08-31T04:16:17;6.57;;;4.70;;
11064;SDS011;5585;52.530;7.320;2023-08-31T04:18:43;5.70;;;4.27;;
11064;SDS011;5585;52.530;7.320;2023-08-31T04:21:12;4.03;;;3.63;;
11064;SDS011;5585;52.530;7.320;2023-08-31T04:23:39;4.43;;;4.03;;
11064;SDS011;5585;52.530;7.320;2023-08-31T04:26:12;4.57;;;4.17;;
11064;SDS011;5585;52.530;7.320;2023-08-31T04:28:38;4.53;;;4.10;;
11064;SDS011;5585;52.530;7.320;2023-08-31T04:31:05;4.63;;;4.23;;
11064;SDS011;5585;52.530;7.320;2023-08-31T04:33:33;4.97;;;4.53;;
11064;SDS011;5585;52.530;7.320;2023-08-31T04:36:00;4.77;;;4.37;;
11064;SDS011;5585;52.530;7.320;2023-08-31T04:38:26;4.97;;;4.47;;
11064;SDS011;5585;52.530;7.320;2023-08-31T04:40:53;5.97;;;5.07;;
11064;SDS011;5585;52.530;7.320;2023-08-31T04:43:20;4.80;;;4.37;;
11064;SDS011;5585;52.530;7.320;2023-08-31T04:45:46;4.53;;;4.13;;
11064;SDS011;5585;52.530;7.320;2023-08-31T04:48:13;4.83;;;4.40;;
11064;SDS011;5585;52.530;7.320;2023-08-31T04:50:42;5.03;;;4.53;;
11064;SDS011;5585;52.530;7.320;2023-08-31T04:53:09;6.10;;;4.80;;
11064;SDS011;5585;52.530;7.320;2023-08-31T04:55:35;4.83;;;4.30;;
11064;SDS011;5585;52.530;7.320;2023-08-31T04:58:02;5.37;;;4.87;;
11064;SDS011;5585;52.530;7.320;2023-08-31T05:00:29;5.40;;;4.90;;
11064;SDS011;5585;52.530;7.320;2023-08-31T05:02:56;4.70;;;4.30;;
11064;SDS011;5585;52.530;7.320;2023-08-31T05:05:22;4.60;;;4.20;;
11064;SDS011;5585;52.530;7.320;2023-08-31T05:07:50;5.90;;;4.07;;
11064;SDS011;5585;52.530;7.320;2023-08-31T05:10:17;4.85;;;4.32;;
11064;SDS011;5585;52.530;7.320;2023-08-31T05:12:43;4.57;;;4.17;;
11064;SDS011;5585;52.530;7.320;2023-08-31T05:15:10;5.93;;;4.73;;
11064;SDS011;5585;52.530;7.320;2023-08-31T05:17:37;5.17;;;3.97;;
11064;SDS011;5585;52.530;7.320;2023-08-31T05:20:04;4.37;;;3.93;;
11064;SDS011;5585;52.530;7.320;2023-08-31T05:22:30;4.37;;;3.97;;
11064;SDS011;5585;52.530;7.320;2023-08-31T05:24:58;5.37;;;4.87;;
11064;SDS011;5585;52.530;7.320;2023-08-31T05:27:25;4.50;;;4.00;;
11064;SDS011;5585;52.530;7.320;2023-08-31T05:29:52;5.17;;;4.40;;
11064;SDS011;5585;52.530;7.320;2023-08-31T05:32:19;5.10;;;4.67;;
11064;SDS011;5585;52.530;7.320;2023-08-31T05:34:45;5.30;;;4.80;;
11064;SDS011;5585;52.530;7.320;2023-08-31T05:37:12;5.83;;;5.20;;
11064;SDS011;5585;52.530;7.320;2023-08-31T05:39:39;5.80;;;5.30;;
11064;SDS011;5585;52.530;7.320;2023-08-31T05:42:07;4.90;;;4.50;;
11064;SDS011;5585;52.530;7.320;2023-08-31T05:44:34;6.43;;;5.70;;
11064;SDS011;5585;52.530;7.320;2023-08-31T05:47:00;5.87;;;5.37;;
11064;SDS011;5585;52.530;7.320;2023-08-31T05:49:28;6.10;;;5.20;;
11064;SDS011;5585;52.530;7.320;2023-08-31T05:51:55;5.80;;;4.80;;
11064;SDS011;5585;52.530;7.320;2023-08-31T05:54:21;5.83;;;5.33;;
11064;SDS011;5585;52.530;7.320;2023-08-31T05:56:48;6.17;;;5.57;;
11064;SDS011;5585;52.530;7.320;2023-08-31T05:59:15;7.63;;;5.67;;
11064;SDS011;5585;52.530;7.320;2023-08-31T06:01:43;6.53;;;5.30;;
11064;SDS011;5585;52.530;7.320;2023-08-31T06:04:09;6.97;;;5.80;;
11064;SDS011;5585;52.530;7.320;2023-08-31T06:06:36;5.63;;;4.90;;
11064;SDS011;5585;52.530;7.320;2023-08-31T06:09:04;5.40;;;4.90;;
11064;SDS011;5585;52.530;7.320;2023-08-31T06:11:31;5.40;;;4.90;;
11064;SDS011;5585;52.530;7.320;2023-08-31T06:13:58;5.07;;;4.57;;
11064;SDS011;5585;52.530;7.320;2023-08-31T06:16:26;5.10;;;4.60;;
11064;SDS011;5585;52.530;7.320;2023-08-31T06:18:52;5.17;;;4.60;;
11064;SDS011;5585;52.530;7.320;2023-08-31T06:21:19;5.90;;;4.90;;
11064;SDS011;5585;52.530;7.320;2023-08-31T06:23:45;5.75;;;5.18;;
11064;SDS011;5585;52.530;7.320;2023-08-31T06:26:12;5.80;;;4.63;;
11064;SDS011;5585;52.530;7.320;2023-08-31T06:28:38;4.47;;;4.07;;
11064;SDS011;5585;52.530;7.320;2023-08-31T06:31:05;7.72;;;5.63;;
11064;SDS011;5585;52.530;7.320;2023-08-31T06:33:33;4.35;;;3.95;;
11064;SDS011;5585;52.530;7.320;2023-08-31T06:35:59;4.10;;;3.70;;
11064;SDS011;5585;52.530;7.320;2023-08-31T06:38:25;4.93;;;3.73;;
11064;SDS011;5585;52.530;7.320;2023-08-31T06:40:52;4.57;;;4.05;;
11064;SDS011;5585;52.530;7.320;2023-08-31T06:43:23;4.47;;;3.93;;
11064;SDS011;5585;52.530;7.320;2023-08-31T06:45:51;4.25;;;3.55;;
11064;SDS011;5585;52.530;7.320;2023-08-31T06:48:18;4.10;;;3.70;;
11064;SDS011;5585;52.530;7.320;2023-08-31T06:50:46;3.55;;;2.80;;
11064;SDS011;5585;52.530;7.320;2023-08-31T06:53:12;3.93;;;2.80;;
11064;SDS011;5585;52.530;7.320;2023-08-31T06:55:39;5.53;;;3.80;;
11064;SDS011;5585;52.530;7.320;2023-08-31T06:58:05;5.10;;;3.17;;
11064;SDS011;5585;52.530;7.320;2023-08-31T07:00:32;4.03;;;3.35;;
11064;SDS011;5585;52.530;7.320;2023-08-31T07:02:58;4.68;;;3.13;;
11064;SDS011;5585;52.530;7.320;2023-08-31T07:05:25;4.40;;;2.67;;
11064;SDS011;5585;52.530;7.320;2023-08-31T07:07:54;4.40;;;3.53;;
11064;SDS011;5585;52.530;7.320;2023-08-31T07:10:21;2.90;;;2.50;;
11064;SDS011;5585;52.530;7.320;2023-08-31T07:12:47;5.75;;;3.65;;
11064;SDS011;5585;52.530;7.320;2023-08-31T07:15:14;4.80;;;3.10;;
11064;SDS011;5585;52.530;7.320;2023-08-31T07:17:40;4.43;;;3.33;;
11064;SDS011;5585;52.530;7.320;2023-08-31T07:20:07;3.60;;;2.90;;
11064;SDS011;5585;52.530;7.320;2023-08-31T07:22:34;5.97;;;3.13;;
11064;SDS011;5585;52.530;7.320;2023-08-31T07:25:02;5.22;;;2.90;;
11064;SDS011;5585;52.530;7.320;2023-08-31T07:27:32;4.40;;;2.67;;
11064;SDS011;5585;52.530;7.320;2023-08-31T07:29:59;2.83;;;2.33;;
11064;SDS011;5585;52.530;7.320;2023-08-31T07:32:25;3.03;;;2.33;;
11064;SDS011;5585;52.530;7.320;2023-08-31T07:34:52;3.78;;;2.38;;
11064;SDS011;5585;52.530;7.320;2023-08-31T07:37:18;2.65;;;1.92;;
11064;SDS011;5585;52.530;7.320;2023-08-31T07:39:45;2.65;;;2.20;;
11064;SDS011;5585;52.530;7.320;2023-08-31T07:42:13;3.03;;;2.53;;
11064;SDS011;5585;52.530;7.320;2023-08-31T07:44:40;3.83;;;2.92;;
11064;SDS011;5585;52.530;7.320;2023-08-31T07:47:07;3.50;;;3.20;;
11064;SDS011;5585;52.530;7.320;2023-08-31T07:49:33;5.43;;;3.22;;
11064;SDS011;5585;52.530;7.320;2023-08-31T07:52:00;5.05;;;3.03;;
11064;SDS011;5585;52.530;7.320;2023-08-31T07:54:26;3.85;;;2.28;;
11064;SDS011;5585;52.530;7.320;2023-08-31T07:56:53;2.60;;;2.25;;
11064;SDS011;5585;52.530;7.320;2023-08-31T07:59:20;3.72;;;2.70;;
11064;SDS011;5585;52.530;7.320;2023-08-31T08:01:47;3.38;;;2.42;;
11064;SDS011;5585;52.530;7.320;2023-08-31T08:04:14;4.88;;;2.90;;
11064;SDS011;5585;52.530;7.320;2023-08-31T08:06:40;3.75;;;2.92;;
11064;SDS011;5585;52.530;7.320;2023-08-31T08:09:07;3.85;;;2.63;;
11064;SDS011;5585;52.530;7.320;2023-08-31T08:11:34;3.15;;;2.47;;
11064;SDS011;5585;52.530;7.320;2023-08-31T08:14:00;5.38;;;3.03;;
11064;SDS011;5585;52.530;7.320;2023-08-31T08:16:29;4.85;;;2.60;;
11064;SDS011;5585;52.530;7.320;2023-08-31T08:18:56;4.50;;;2.58;;
11064;SDS011;5585;52.530;7.320;2023-08-31T08:21:22;3.28;;;2.05;;
11064;SDS011;5585;52.530;7.320;2023-08-31T08:23:49;3.42;;;2.20;;
11064;SDS011;5585;52.530;7.320;2023-08-31T08:26:17;3.47;;;2.63;;
11064;SDS011;5585;52.530;7.320;2023-08-31T08:28:43;3.50;;;2.53;;
11064;SDS011;5585;52.530;7.320;2023-08-31T08:31:11;3.97;;;1.70;;
11064;SDS011;5585;52.530;7.320;2023-08-31T08:33:39;2.63;;;1.60;;
11064;SDS011;5585;52.530;7.320;2023-08-31T08:36:05;2.88;;;2.00;;
11064;SDS011;5585;52.530;7.320;2023-08-31T08:38:32;3.05;;;2.00;;
11064;SDS011;5585;52.530;7.320;2023-08-31T08:41:03;3.22;;;2.58;;
11064;SDS011;5585;52.530;7.320;2023-08-31T08:43:30;3.03;;;1.88;;
11064;SDS011;5585;52.530;7.320;2023-08-31T08:45:58;1.90;;;1.33;;
11064;SDS011;5585;52.530;7.320;2023-08-31T08:48:26;4.10;;;2.00;;
11064;SDS011;5585;52.530;7.320;2023-08-31T08:50:55;4.20;;;1.98;;
11064;SDS011;5585;52.530;7.320;2023-08-31T08:53:21;8.77;;;4.70;;
11064;SDS011;5585;52.530;7.320;2023-08-31T08:55:48;7.43;;;3.58;;
11064;SDS011;5585;52.530;7.320;2023-08-31T08:58:14;4.07;;;2.38;;
11064;SDS011;5585;52.530;7.320;2023-08-31T09:00:41;3.83;;;1.90;;
11064;SDS011;5585;52.530;7.320;2023-08-31T09:03:08;2.53;;;1.42;;
11064;SDS011;5585;52.530;7.320;2023-08-31T09:05:34;2.97;;;1.45;;
11064;SDS011;5585;52.530;7.320;2023-08-31T09:08:03;4.32;;;1.92;;
11064;SDS011;5585;52.530;7.320;2023-08-31T09:10:33;3.05;;;1.40;;
11064;SDS011;5585;52.530;7.320;2023-08-31T09:13:01;3.67;;;1.15;;
11064;SDS011;5585;52.530;7.320;2023-08-31T09:15:35;1.92;;;1.00;;
11064;SDS011;5585;52.530;7.320;2023-08-31T09:18:02;3.08;;;1.17;;
11064;SDS011;5585;52.530;7.320;2023-08-31T09:20:29;2.78;;;1.10;;
11064;SDS011;5585;52.530;7.320;2023-08-31T09:22:55;6.43;;;2.00;;
11064;SDS011;5585;52.530;7.320;2023-08-31T09:25:23;3.67;;;1.10;;
11064;SDS011;5585;52.530;7.320;2023-08-31T09:27:50;1.92;;;0.70;;
11064;SDS011;5585;52.530;7.320;2023-08-31T09:30:17;2.00;;;0.65;;
11064;SDS011;5585;52.530;7.320;2023-08-31T09:32:44;2.47;;;0.70;;
11064;SDS011;5585;52.530;7.320;2023-08-31T09:35:17;2.08;;;0.88;;
11064;SDS011;5585;52.530;7.320;2023-08-31T09:37:45;2.17;;;0.73;;
11064;SDS011;5585;52.530;7.320;2023-08-31T09:40:20;2.55;;;1.00;;
11064;SDS011;5585;52.530;7.320;2023-08-31T09:42:49;3.05;;;0.80;;
11064;SDS011;5585;52.530;7.320;2023-08-31T09:45:16;1.98;;;0.80;;
11064;SDS011;5585;52.530;7.320;2023-08-31T09:47:43;2.00;;;0.93;;
11064;SDS011;5585;52.530;7.320;2023-08-31T09:50:09;0.73;;;0.60;;
11064;SDS011;5585;52.530;7.320;2023-08-31T09:52:36;1.45;;;0.60;;
11064;SDS011;5585;52.530;7.320;2023-08-31T09:55:04;1.63;;;0.80;;
11064;SDS011;5585;52.530;7.320;2023-08-31T09:57:31;1.20;;;0.68;;
11064;SDS011;5585;52.530;7.320;2023-08-31T10:00:00;2.17;;;0.55;;
11064;SDS011;5585;52.530;7.320;2023-08-31T10:02:27;2.17;;;0.60;;
11064;SDS011;5585;52.530;7.320;2023-08-31T10:04:57;1.90;;;0.55;;
11064;SDS011;5585;52.530;7.320;2023-08-31T10:07:24;3.17;;;0.80;;
11064;SDS011;5585;52.530;7.320;2023-08-31T10:09:50;1.13;;;0.50;;
11064;SDS011;5585;52.530;7.320;2023-08-31T10:12:17;2.10;;;0.70;;
11064;SDS011;5585;52.530;7.320;2023-08-31T10:14:45;1.65;;;0.80;;
11064;SDS011;5585;52.530;7.320;2023-08-31T10:17:15;2.20;;;0.82;;
11064;SDS011;5585;52.530;7.320;2023-08-31T10:19:42;1.67;;;0.55;;
11064;SDS011;5585;52.530;7.320;2023-08-31T10:22:09;2.03;;;0.57;;
11064;SDS011;5585;52.530;7.320;2023-08-31T10:27:17;0.82;;;0.50;;
11064;SDS011;5585;52.530;7.320;2023-08-31T10:29:43;1.30;;;0.50;;
11064;SDS011;5585;52.530;7.320;2023-08-31T10:32:10;1.52;;;0.50;;
11064;SDS011;5585;52.530;7.320;2023-08-31T10:34:38;0.70;;;0.60;;
11064;SDS011;5585;52.530;7.320;2023-08-31T10:37:19;0.75;;;0.40;;
11064;SDS011;5585;52.530;7.320;2023-08-31T10:39:45;1.35;;;0.60;;
11064;SDS011;5585;52.530;7.320;2023-08-31T10:42:15;1.00;;;0.40;;
11064;SDS011;5585;52.530;7.320;2023-08-31T10:44:42;1.70;;;0.60;;
11064;SDS011;5585;52.530;7.320;2023-08-31T10:47:08;0.90;;;0.40;;
11064;SDS011;5585;52.530;7.320;2023-08-31T10:49:35;1.15;;;0.40;;
11064;SDS011;5585;52.530;7.320;2023-08-31T10:52:16;1.70;;;0.70;;
11064;SDS011;5585;52.530;7.320;2023-08-31T10:54:43;1.00;;;0.40;;
11064;SDS011;5585;52.530;7.320;2023-08-31T10:57:09;1.13;;;0.55;;
11064;SDS011;5585;52.530;7.320;2023-08-31T10:59:42;0.85;;;0.50;;
11064;SDS011;5585;52.530;7.320;2023-08-31T11:02:08;1.73;;;0.63;;
11064;SDS011;5585;52.530;7.320;2023-08-31T11:07:17;1.05;;;0.40;;
11064;SDS011;5585;52.530;7.320;2023-08-31T11:09:45;1.65;;;0.70;;
11064;SDS011;5585;52.530;7.320;2023-08-31T11:12:12;2.35;;;0.68;;
11064;SDS011;5585;52.530;7.320;2023-08-31T11:14:39;3.92;;;0.90;;
11064;SDS011;5585;52.530;7.320;2023-08-31T11:17:05;1.88;;;0.75;;
11064;SDS011;5585;52.530;7.320;2023-08-31T11:19:32;1.25;;;0.60;;
11064;SDS011;5585;52.530;7.320;2023-08-31T11:22:00;2.13;;;0.60;;
11064;SDS011;5585;52.530;7.320;2023-08-31T11:24:28;3.38;;;0.77;;
11064;SDS011;5585;52.530;7.320;2023-08-31T11:26:54;2.00;;;0.60;;
11064;SDS011;5585;52.530;7.320;2023-08-31T11:29:21;1.30;;;0.70;;
11064;SDS011;5585;52.530;7.320;2023-08-31T11:31:47;1.30;;;0.70;;
11064;SDS011;5585;52.530;7.320;2023-08-31T11:34:14;1.13;;;0.70;;
11064;SDS011;5585;52.530;7.320;2023-08-31T11:36:41;1.60;;;0.63;;
11064;SDS011;5585;52.530;7.320;2023-08-31T11:39:08;1.48;;;0.63;;
11064;SDS011;5585;52.530;7.320;2023-08-31T11:41:36;1.05;;;0.70;;
11064;SDS011;5585;52.530;7.320;2023-08-31T11:44:06;2.35;;;0.80;;
11064;SDS011;5585;52.530;7.320;2023-08-31T11:46:33;1.20;;;0.50;;
11064;SDS011;5585;52.530;7.320;2023-08-31T11:49:00;0.80;;;0.45;;
11064;SDS011;5585;52.530;7.320;2023-08-31T11:51:26;2.35;;;0.85;;
11064;SDS011;5585;52.530;7.320;2023-08-31T11:53:55;2.47;;;1.00;;
11064;SDS011;5585;52.530;7.320;2023-08-31T11:56:23;0.98;;;0.68;;
11064;SDS011;5585;52.530;7.320;2023-08-31T11:58:51;1.95;;;0.60;;
11064;SDS011;5585;52.530;7.320;2023-08-31T12:01:19;0.75;;;0.45;;
11064;SDS011;5585;52.530;7.320;2023-08-31T12:03:46;2.67;;;0.60;;
11064;SDS011;5585;52.530;7.320;2023-08-31T12:06:14;2.72;;;0.90;;
11064;SDS011;5585;52.530;7.320;2023-08-31T12:08:41;1.45;;;0.57;;
11064;SDS011;5585;52.530;7.320;2023-08-31T12:11:07;2.55;;;0.57;;
11064;SDS011;5585;52.530;7.320;2023-08-31T12:13:34;2.28;;;0.88;;
11064;SDS011;5585;52.530;7.320;2023-08-31T12:16:02;0.93;;;0.60;;
11064;SDS011;5585;52.530;7.320;2023-08-31T12:18:29;1.90;;;0.90;;
11064;SDS011;5585;52.530;7.320;2023-08-31T12:20:56;4.72;;;1.10;;
11064;SDS011;5585;52.530;7.320;2023-08-31T12:23:23;2.47;;;0.70;;
11064;SDS011;5585;52.530;7.320;2023-08-31T12:25:51;2.67;;;0.65;;
11064;SDS011;5585;52.530;7.320;2023-08-31T12:28:18;2.25;;;0.60;;
11064;SDS011;5585;52.530;7.320;2023-08-31T12:30:47;2.25;;;0.70;;
11064;SDS011;5585;52.530;7.320;2023-08-31T12:33:15;2.00;;;0.98;;
11064;SDS011;5585;52.530;7.320;2023-08-31T12:35:42;1.35;;;0.70;;
11064;SDS011;5585;52.530;7.320;2023-08-31T12:38:09;2.85;;;0.90;;
11064;SDS011;5585;52.530;7.320;2023-08-31T12:40:35;2.50;;;0.70;;
11064;SDS011;5585;52.530;7.320;2023-08-31T12:43:03;1.98;;;0.77;;
11064;SDS011;5585;52.530;7.320;2023-08-31T12:45:30;0.93;;;0.60;;
11064;SDS011;5585;52.530;7.320;2023-08-31T12:47:57;3.42;;;1.15;;
11064;SDS011;5585;52.530;7.320;2023-08-31T12:50:24;2.15;;;1.17;;
11064;SDS011;5585;52.530;7.320;2023-08-31T12:52:51;2.25;;;1.40;;
11064;SDS011;5585;52.530;7.320;2023-08-31T12:55:17;1.48;;;1.08;;
11064;SDS011;5585;52.530;7.320;2023-08-31T12:57:44;2.05;;;1.25;;
11064;SDS011;5585;52.530;7.320;2023-08-31T13:00:11;1.30;;;0.80;;
11064;SDS011;5585;52.530;7.320;2023-08-31T13:02:38;5.15;;;1.33;;
11064;SDS011;5585;52.530;7.320;2023-08-31T13:05:05;3.17;;;1.45;;
11064;SDS011;5585;52.530;7.320;2023-08-31T13:07:34;1.83;;;1.10;;
11064;SDS011;5585;52.530;7.320;2023-08-31T13:10:02;3.33;;;1.25;;
11064;SDS011;5585;52.530;7.320;2023-08-31T13:12:29;2.78;;;1.30;;
11064;SDS011;5585;52.530;7.320;2023-08-31T13:14:55;4.53;;;1.70;;
11064;SDS011;5585;52.530;7.320;2023-08-31T13:17:22;3.95;;;1.60;;
11064;SDS011;5585;52.530;7.320;2023-08-31T13:19:51;2.03;;;0.93;;
11064;SDS011;5585;52.530;7.320;2023-08-31T13:22:18;2.97;;;0.80;;
11064;SDS011;5585;52.530;7.320;2023-08-31T13:24:46;1.60;;;0.70;;
11064;SDS011;5585;52.530;7.320;2023-08-31T13:27:13;1.65;;;0.50;;
11064;SDS011;5585;52.530;7.320;2023-08-31T13:29:39;4.78;;;1.05;;
11064;SDS011;5585;52.530;7.320;2023-08-31T13:32:06;1.15;;;0.50;;
11064;SDS011;5585;52.530;7.320;2023-08-31T13:34:33;0.50;;;0.40;;
11064;SDS011;5585;52.530;7.320;2023-08-31T13:36:59;1.33;;;0.40;;
11064;SDS011;5585;52.530;7.320;2023-08-31T13:39:26;0.43;;;0.28;;
11064;SDS011;5585;52.530;7.320;2023-08-31T13:41:54;1.42;;;0.40;;
11064;SDS011;5585;52.530;7.320;2023-08-31T13:44:20;4.88;;;0.75;;
11064;SDS011;5585;52.530;7.320;2023-08-31T13:46:47;1.55;;;0.40;;
11064;SDS011;5585;52.530;7.320;2023-08-31T13:49:13;1.13;;;0.60;;
11064;SDS011;5585;52.530;7.320;2023-08-31T13:51:40;1.38;;;0.32;;
11064;SDS011;5585;52.530;7.320;2023-08-31T13:54:06;1.50;;;0.50;;
11064;SDS011;5585;52.530;7.320;2023-08-31T13:56:33;1.67;;;0.60;;
11064;SDS011;5585;52.530;7.320;2023-08-31T13:59:01;1.80;;;0.68;;
11064;SDS011;5585;52.530;7.320;2023-08-31T14:01:28;2.17;;;0.55;;
11064;SDS011;5585;52.530;7.320;2023-08-31T14:03:55;1.73;;;0.60;;
11064;SDS011;5585;52.530;7.320;2023-08-31T14:06:21;0.90;;;0.50;;
11064;SDS011;5585;52.530;7.320;2023-08-31T14:08:48;1.10;;;0.43;;
11064;SDS011;5585;52.530;7.320;2023-08-31T14:11:14;2.42;;;0.80;;
11064;SDS011;5585;52.530;7.320;2023-08-31T14:13:42;2.13;;;0.63;;
11064;SDS011;5585;52.530;7.320;2023-08-31T14:16:10;1.98;;;0.60;;
11064;SDS011;5585;52.530;7.320;2023-08-31T14:18:37;1.08;;;0.60;;
11064;SDS011;5585;52.530;7.320;2023-08-31T14:21:04;2.50;;;0.93;;
11064;SDS011;5585;52.530;7.320;2023-08-31T14:23:30;3.47;;;1.48;;
11064;SDS011;5585;52.530;7.320;2023-08-31T14:26:00;1.20;;;0.80;;
11064;SDS011;5585;52.530;7.320;2023-08-31T14:28:26;1.80;;;0.80;;
11064;SDS011;5585;52.530;7.320;2023-08-31T14:30:53;1.60;;;0.75;;
11064;SDS011;5585;52.530;7.320;2023-08-31T14:33:21;2.85;;;0.60;;
11064;SDS011;5585;52.530;7.320;2023-08-31T14:35:49;2.05;;;0.60;;
11064;SDS011;5585;52.530;7.320;2023-08-31T14:38:20;0.70;;;0.50;;
11064;SDS011;5585;52.530;7.320;2023-08-31T14:40:46;2.35;;;1.13;;
11064;SDS011;5585;52.530;7.320;2023-08-31T14:43:13;2.30;;;1.00;;
11064;SDS011;5585;52.530;7.320;2023-08-31T14:45:39;3.90;;;1.30;;
11064;SDS011;5585;52.530;7.320;2023-08-31T14:48:06;2.20;;;1.10;;
11064;SDS011;5585;52.530;7.320;2023-08-31T14:50:34;2.50;;;0.98;;
11064;SDS011;5585;52.530;7.320;2023-08-31T14:53:01;1.42;;;0.70;;
11064;SDS011;5585;52.530;7.320;2023-08-31T14:55:27;1.88;;;0.77;;
11064;SDS011;5585;52.530;7.320;2023-08-31T14:57:54;1.52;;;0.70;;
11064;SDS011;5585;52.530;7.320;2023-08-31T15:00:20;1.10;;;0.60;;
11064;SDS011;5585;52.530;7.320;2023-08-31T15:02:47;1.50;;;0.75;;
11064;SDS011;5585;52.530;7.320;2023-08-31T15:05:13;2.85;;;1.67;;